sensor_id;sensor_type;location;lat;lon;timestamp;P1;durP1;ratioP1;P2;durP2;ratioP2
16510;SDS011;8368;48.772;8.754;2024-03-23T00:53:27;3.20;;;2.90;;
16510;SDS011;8368;48.772;8.754;2024-03-23T00:55:54;3.47;;;3.00;;
16510;SDS011;8368;48.772;8.754;2024-03-23T00:58:19;3.73;;;3.07;;
16510;SDS011;8368;48.772;8.754;2024-03-23T01:00:45;3.40;;;3.10;;
16510;SDS011;8368;48.772;8.754;2024-03-23T01:03:10;3.23;;;2.97;;
16510;SDS011;8368;48.772;8.754;2024-03-23T01:05:36;3.03;;;2.80;;
16510;SDS011;8368;48.772;8.754;2024-03-23T01:08:01;2.90;;;2.70;;
16510;SDS011;8368;48.772;8.754;2024-03-23T01:10:27;4.50;;;3.10;;
16510;SDS011;8368;48.772;8.754;2024-03-23T01:12:52;6.27;;;3.27;;
16510;SDS011;8368;48.772;8.754;2024-03-23T01:15:18;2.93;;;2.73;;
16510;SDS011;8368;48.772;8.754;2024-03-23T01:17:43;3.43;;;2.70;;
16510;SDS011;8368;48.772;8.754;2024-03-23T01:20:09;3.20;;;3.00;;
16510;SDS011;8368;48.772;8.754;2024-03-23T01:22:35;3.37;;;2.87;;
16510;SDS011;8368;48.772;8.754;2024-03-23T01:25:00;3.33;;;2.80;;
16510;SDS011;8368;48.772;8.754;2024-03-23T01:27:26;3.10;;;2.90;;
16510;SDS011;8368;48.772;8.754;2024-03-23T01:29:51;2.80;;;2.60;;
16510;SDS011;8368;48.772;8.754;2024-03-23T01:32:17;3.80;;;3.47;;
16510;SDS011;8368;48.772;8.754;2024-03-23T01:34:43;6.10;;;3.20;;
16510;SDS011;8368;48.772;8.754;2024-03-23T01:37:09;3.20;;;2.90;;
16510;SDS011;8368;48.772;8.754;2024-03-23T01:39:34;3.40;;;3.10;;
16510;SDS011;8368;48.772;8.754;2024-03-23T01:42:00;4.90;;;3.00;;
16510;SDS011;8368;48.772;8.754;2024-03-23T01:44:25;3.47;;;2.97;;
16510;SDS011;8368;48.772;8.754;2024-03-23T01:46:51;2.87;;;2.70;;
16510;SDS011;8368;48.772;8.754;2024-03-23T01:49:17;3.00;;;2.80;;
16510;SDS011;8368;48.772;8.754;2024-03-23T01:51:42;3.53;;;3.23;;
16510;SDS011;8368;48.772;8.754;2024-03-23T01:54:09;2.77;;;2.57;;
16510;SDS011;8368;48.772;8.754;2024-03-23T01:56:35;2.97;;;2.77;;
16510;SDS011;8368;48.772;8.754;2024-03-23T01:59:04;2.90;;;2.50;;
16510;SDS011;8368;48.772;8.754;2024-03-23T02:01:30;2.50;;;2.30;;
16510;SDS011;8368;48.772;8.754;2024-03-23T02:03:56;2.60;;;2.40;;
16510;SDS011;8368;48.772;8.754;2024-03-23T02:06:22;2.03;;;1.90;;
16510;SDS011;8368;48.772;8.754;2024-03-23T02:08:49;2.97;;;2.57;;
16510;SDS011;8368;48.772;8.754;2024-03-23T02:11:15;2.40;;;2.30;;
16510;SDS011;8368;48.772;8.754;2024-03-23T02:13:40;2.70;;;2.20;;
16510;SDS011;8368;48.772;8.754;2024-03-23T02:16:06;2.20;;;2.10;;
16510;SDS011;8368;48.772;8.754;2024-03-23T02:18:35;4.10;;;2.10;;
16510;SDS011;8368;48.772;8.754;2024-03-23T02:21:00;2.10;;;2.00;;
16510;SDS011;8368;48.772;8.754;2024-03-23T02:23:26;2.17;;;2.00;;
16510;SDS011;8368;48.772;8.754;2024-03-23T02:25:52;2.20;;;2.10;;
16510;SDS011;8368;48.772;8.754;2024-03-23T02:28:20;2.00;;;1.90;;
16510;SDS011;8368;48.772;8.754;2024-03-23T02:30:47;1.90;;;1.80;;
16510;SDS011;8368;48.772;8.754;2024-03-23T02:33:16;2.10;;;1.90;;
16510;SDS011;8368;48.772;8.754;2024-03-23T02:35:42;1.90;;;1.80;;
16510;SDS011;8368;48.772;8.754;2024-03-23T02:38:08;1.90;;;1.77;;
16510;SDS011;8368;48.772;8.754;2024-03-23T02:40:34;2.10;;;2.00;;
16510;SDS011;8368;48.772;8.754;2024-03-23T02:43:00;2.53;;;1.80;;
16510;SDS011;8368;48.772;8.754;2024-03-23T02:45:25;4.47;;;2.07;;
16510;SDS011;8368;48.772;8.754;2024-03-23T02:47:51;3.43;;;1.83;;
16510;SDS011;8368;48.772;8.754;2024-03-23T02:50:20;4.37;;;1.90;;
16510;SDS011;8368;48.772;8.754;2024-03-23T02:52:45;1.83;;;1.73;;
16510;SDS011;8368;48.772;8.754;2024-03-23T02:55:12;2.07;;;1.97;;
16510;SDS011;8368;48.772;8.754;2024-03-23T02:57:38;2.03;;;1.90;;
16510;SDS011;8368;48.772;8.754;2024-03-23T03:00:03;1.67;;;1.57;;
16510;SDS011;8368;48.772;8.754;2024-03-23T03:02:31;2.10;;;2.00;;
16510;SDS011;8368;48.772;8.754;2024-03-23T03:04:57;1.87;;;1.77;;
16510;SDS011;8368;48.772;8.754;2024-03-23T03:07:22;2.00;;;1.90;;
16510;SDS011;8368;48.772;8.754;2024-03-23T03:09:48;2.90;;;1.90;;
16510;SDS011;8368;48.772;8.754;2024-03-23T03:12:13;1.97;;;1.87;;
16510;SDS011;8368;48.772;8.754;2024-03-23T03:14:39;3.20;;;1.80;;
16510;SDS011;8368;48.772;8.754;2024-03-23T03:17:04;2.10;;;1.90;;
16510;SDS011;8368;48.772;8.754;2024-03-23T03:19:30;3.60;;;2.20;;
16510;SDS011;8368;48.772;8.754;2024-03-23T03:21:55;2.10;;;2.00;;
16510;SDS011;8368;48.772;8.754;2024-03-23T03:24:21;2.17;;;2.07;;
16510;SDS011;8368;48.772;8.754;2024-03-23T03:26:46;2.10;;;2.00;;
16510;SDS011;8368;48.772;8.754;2024-03-23T03:29:12;2.20;;;2.00;;
16510;SDS011;8368;48.772;8.754;2024-03-23T03:31:38;2.93;;;2.33;;
16510;SDS011;8368;48.772;8.754;2024-03-23T03:34:04;2.27;;;2.17;;
16510;SDS011;8368;48.772;8.754;2024-03-23T03:36:30;3.20;;;2.60;;
16510;SDS011;8368;48.772;8.754;2024-03-23T03:38:55;2.47;;;2.30;;
16510;SDS011;8368;48.772;8.754;2024-03-23T03:41:21;2.87;;;2.67;;
16510;SDS011;8368;48.772;8.754;2024-03-23T03:43:46;3.07;;;2.23;;
16510;SDS011;8368;48.772;8.754;2024-03-23T03:46:12;2.57;;;2.30;;
16510;SDS011;8368;48.772;8.754;2024-03-23T03:48:37;2.77;;;2.57;;
16510;SDS011;8368;48.772;8.754;2024-03-23T03:51:03;2.57;;;2.37;;
16510;SDS011;8368;48.772;8.754;2024-03-23T03:53:29;2.87;;;2.67;;
16510;SDS011;8368;48.772;8.754;2024-03-23T03:55:55;2.60;;;2.33;;
16510;SDS011;8368;48.772;8.754;2024-03-23T03:58:21;2.80;;;2.57;;
16510;SDS011;8368;48.772;8.754;2024-03-23T04:00:46;4.00;;;2.40;;
16510;SDS011;8368;48.772;8.754;2024-03-23T04:03:12;4.43;;;2.37;;
16510;SDS011;8368;48.772;8.754;2024-03-23T04:05:37;2.20;;;2.03;;
16510;SDS011;8368;48.772;8.754;2024-03-23T04:08:03;5.00;;;2.20;;
16510;SDS011;8368;48.772;8.754;2024-03-23T04:10:29;3.80;;;3.47;;
16510;SDS011;8368;48.772;8.754;2024-03-23T04:12:55;6.23;;;4.53;;
16510;SDS011;8368;48.772;8.754;2024-03-23T04:15:21;5.03;;;4.60;;
16510;SDS011;8368;48.772;8.754;2024-03-23T04:17:46;10.13;;;5.63;;
16510;SDS011;8368;48.772;8.754;2024-03-23T04:20:12;7.80;;;6.27;;
16510;SDS011;8368;48.772;8.754;2024-03-23T04:22:41;10.90;;;7.30;;
16510;SDS011;8368;48.772;8.754;2024-03-23T04:25:08;10.23;;;7.50;;
16510;SDS011;8368;48.772;8.754;2024-03-23T04:27:35;9.07;;;7.27;;
16510;SDS011;8368;48.772;8.754;2024-03-23T04:30:01;11.20;;;7.53;;
16510;SDS011;8368;48.772;8.754;2024-03-23T04:32:28;12.67;;;10.07;;
16510;SDS011;8368;48.772;8.754;2024-03-23T04:34:54;21.40;;;12.23;;
16510;SDS011;8368;48.772;8.754;2024-03-23T04:37:20;21.30;;;13.67;;
16510;SDS011;8368;48.772;8.754;2024-03-23T04:39:46;21.70;;;12.87;;
16510;SDS011;8368;48.772;8.754;2024-03-23T04:42:14;25.07;;;14.17;;
16510;SDS011;8368;48.772;8.754;2024-03-23T04:44:40;21.53;;;12.83;;
16510;SDS011;8368;48.772;8.754;2024-03-23T04:47:05;21.13;;;11.50;;
16510;SDS011;8368;48.772;8.754;2024-03-23T04:49:32;20.70;;;12.93;;
16510;SDS011;8368;48.772;8.754;2024-03-23T04:51:57;22.47;;;12.73;;
16510;SDS011;8368;48.772;8.754;2024-03-23T04:54:23;17.67;;;11.53;;
16510;SDS011;8368;48.772;8.754;2024-03-23T04:56:49;18.33;;;12.00;;
16510;SDS011;8368;48.772;8.754;2024-03-23T04:59:14;21.77;;;13.23;;
16510;SDS011;8368;48.772;8.754;2024-03-23T05:01:40;20.73;;;12.50;;
16510;SDS011;8368;48.772;8.754;2024-03-23T05:04:07;22.10;;;13.07;;
16510;SDS011;8368;48.772;8.754;2024-03-23T05:06:33;19.93;;;12.07;;
16510;SDS011;8368;48.772;8.754;2024-03-23T05:08:59;21.63;;;12.27;;
16510;SDS011;8368;48.772;8.754;2024-03-23T05:11:25;22.07;;;12.10;;
16510;SDS011;8368;48.772;8.754;2024-03-23T05:13:50;20.17;;;11.43;;
16510;SDS011;8368;48.772;8.754;2024-03-23T05:16:16;19.80;;;10.70;;
16510;SDS011;8368;48.772;8.754;2024-03-23T05:18:41;13.20;;;8.37;;
16510;SDS011;8368;48.772;8.754;2024-03-23T05:21:07;16.20;;;9.60;;
16510;SDS011;8368;48.772;8.754;2024-03-23T05:23:32;14.67;;;8.53;;
16510;SDS011;8368;48.772;8.754;2024-03-23T05:25:58;12.83;;;7.07;;
16510;SDS011;8368;48.772;8.754;2024-03-23T05:28:24;17.57;;;9.00;;
16510;SDS011;8368;48.772;8.754;2024-03-23T05:30:50;11.17;;;7.00;;
16510;SDS011;8368;48.772;8.754;2024-03-23T05:33:19;7.80;;;5.60;;
16510;SDS011;8368;48.772;8.754;2024-03-23T05:35:45;9.67;;;5.70;;
16510;SDS011;8368;48.772;8.754;2024-03-23T05:38:12;5.33;;;4.20;;
16510;SDS011;8368;48.772;8.754;2024-03-23T05:40:38;9.60;;;5.17;;
16510;SDS011;8368;48.772;8.754;2024-03-23T05:43:05;5.40;;;4.23;;
16510;SDS011;8368;48.772;8.754;2024-03-23T05:45:31;4.83;;;3.77;;
16510;SDS011;8368;48.772;8.754;2024-03-23T05:47:57;3.87;;;3.33;;
16510;SDS011;8368;48.772;8.754;2024-03-23T05:50:23;3.60;;;3.10;;
16510;SDS011;8368;48.772;8.754;2024-03-23T05:52:49;5.77;;;3.13;;
16510;SDS011;8368;48.772;8.754;2024-03-23T05:55:15;2.83;;;2.60;;
16510;SDS011;8368;48.772;8.754;2024-03-23T05:57:40;3.03;;;2.30;;
16510;SDS011;8368;48.772;8.754;2024-03-23T06:00:06;3.33;;;2.00;;
16510;SDS011;8368;48.772;8.754;2024-03-23T06:02:44;2.67;;;1.97;;
16510;SDS011;8368;48.772;8.754;2024-03-23T06:05:12;1.33;;;1.30;;
16510;SDS011;8368;48.772;8.754;2024-03-23T06:07:38;1.50;;;1.43;;
16510;SDS011;8368;48.772;8.754;2024-03-23T06:10:04;1.73;;;1.63;;
16510;SDS011;8368;48.772;8.754;2024-03-23T06:12:30;2.13;;;1.37;;
16510;SDS011;8368;48.772;8.754;2024-03-23T06:14:56;1.23;;;1.23;;
16510;SDS011;8368;48.772;8.754;2024-03-23T06:17:22;1.17;;;1.13;;
16510;SDS011;8368;48.772;8.754;2024-03-23T06:19:47;1.37;;;1.27;;
16510;SDS011;8368;48.772;8.754;2024-03-23T06:22:14;1.10;;;1.10;;
16510;SDS011;8368;48.772;8.754;2024-03-23T06:24:39;1.70;;;1.60;;
16510;SDS011;8368;48.772;8.754;2024-03-23T06:27:05;1.20;;;1.10;;
16510;SDS011;8368;48.772;8.754;2024-03-23T06:29:30;1.07;;;1.00;;
16510;SDS011;8368;48.772;8.754;2024-03-23T06:31:56;1.00;;;1.00;;
16510;SDS011;8368;48.772;8.754;2024-03-23T06:34:21;0.80;;;0.80;;
16510;SDS011;8368;48.772;8.754;2024-03-23T06:36:48;1.17;;;1.17;;
16510;SDS011;8368;48.772;8.754;2024-03-23T06:39:14;0.87;;;0.87;;
16510;SDS011;8368;48.772;8.754;2024-03-23T06:41:51;1.00;;;1.00;;
16510;SDS011;8368;48.772;8.754;2024-03-23T06:44:17;1.00;;;1.00;;
16510;SDS011;8368;48.772;8.754;2024-03-23T06:46:44;1.00;;;1.00;;
16510;SDS011;8368;48.772;8.754;2024-03-23T06:49:10;0.90;;;0.90;;
16510;SDS011;8368;48.772;8.754;2024-03-23T06:51:35;0.70;;;0.70;;
16510;SDS011;8368;48.772;8.754;2024-03-23T06:54:02;0.80;;;0.80;;
16510;SDS011;8368;48.772;8.754;2024-03-23T06:56:29;0.80;;;0.77;;
16510;SDS011;8368;48.772;8.754;2024-03-23T06:58:54;0.63;;;0.63;;
16510;SDS011;8368;48.772;8.754;2024-03-23T07:01:21;1.80;;;0.60;;
16510;SDS011;8368;48.772;8.754;2024-03-23T07:03:46;1.60;;;0.77;;
16510;SDS011;8368;48.772;8.754;2024-03-23T07:06:12;0.60;;;0.60;;
16510;SDS011;8368;48.772;8.754;2024-03-23T07:08:37;0.70;;;0.70;;
16510;SDS011;8368;48.772;8.754;2024-03-23T07:11:03;0.60;;;0.60;;
16510;SDS011;8368;48.772;8.754;2024-03-23T07:13:29;0.70;;;0.70;;
16510;SDS011;8368;48.772;8.754;2024-03-23T07:15:55;1.27;;;0.83;;
16510;SDS011;8368;48.772;8.754;2024-03-23T07:18:22;0.90;;;0.90;;
16510;SDS011;8368;48.772;8.754;2024-03-23T07:20:57;0.80;;;0.80;;
16510;SDS011;8368;48.772;8.754;2024-03-23T07:23:23;0.80;;;0.80;;
16510;SDS011;8368;48.772;8.754;2024-03-23T07:28:24;0.80;;;0.80;;
16510;SDS011;8368;48.772;8.754;2024-03-23T07:31:02;1.00;;;1.00;;
16510;SDS011;8368;48.772;8.754;2024-03-23T07:33:36;0.70;;;0.70;;
16510;SDS011;8368;48.772;8.754;2024-03-23T07:36:10;0.70;;;0.70;;
16510;SDS011;8368;48.772;8.754;2024-03-23T07:38:36;1.00;;;1.00;;
16510;SDS011;8368;48.772;8.754;2024-03-23T07:41:03;1.33;;;0.87;;
16510;SDS011;8368;48.772;8.754;2024-03-23T07:43:32;0.60;;;0.60;;
16510;SDS011;8368;48.772;8.754;2024-03-23T07:45:58;0.80;;;0.80;;
16510;SDS011;8368;48.772;8.754;2024-03-23T07:48:24;0.73;;;0.73;;
16510;SDS011;8368;48.772;8.754;2024-03-23T07:53:24;0.93;;;0.93;;
16510;SDS011;8368;48.772;8.754;2024-03-23T07:56:02;1.00;;;1.00;;
16510;SDS011;8368;48.772;8.754;2024-03-23T07:58:34;1.37;;;1.33;;
16510;SDS011;8368;48.772;8.754;2024-03-23T08:01:07;1.30;;;1.27;;
16510;SDS011;8368;48.772;8.754;2024-03-23T08:03:34;1.30;;;1.30;;
16510;SDS011;8368;48.772;8.754;2024-03-23T08:08:55;1.67;;;1.30;;
16510;SDS011;8368;48.772;8.754;2024-03-23T08:11:28;2.00;;;1.30;;
16510;SDS011;8368;48.772;8.754;2024-03-23T08:13:54;1.60;;;1.50;;
16510;SDS011;8368;48.772;8.754;2024-03-23T08:16:20;1.60;;;1.50;;
16510;SDS011;8368;48.772;8.754;2024-03-23T08:18:46;2.00;;;1.73;;
16510;SDS011;8368;48.772;8.754;2024-03-23T08:21:11;1.60;;;1.50;;
16510;SDS011;8368;48.772;8.754;2024-03-23T08:23:37;1.37;;;1.33;;
16510;SDS011;8368;48.772;8.754;2024-03-23T08:26:04;1.60;;;1.50;;
16510;SDS011;8368;48.772;8.754;2024-03-23T08:28:31;1.33;;;1.33;;
16510;SDS011;8368;48.772;8.754;2024-03-23T08:31:01;4.90;;;1.80;;
16510;SDS011;8368;48.772;8.754;2024-03-23T08:33:28;2.40;;;1.73;;
16510;SDS011;8368;48.772;8.754;2024-03-23T08:35:55;2.17;;;1.70;;
16510;SDS011;8368;48.772;8.754;2024-03-23T08:38:28;2.47;;;1.93;;
16510;SDS011;8368;48.772;8.754;2024-03-23T08:40:57;2.13;;;1.93;;
16510;SDS011;8368;48.772;8.754;2024-03-23T08:43:24;2.20;;;2.10;;
16510;SDS011;8368;48.772;8.754;2024-03-23T08:45:50;2.90;;;2.53;;
16510;SDS011;8368;48.772;8.754;2024-03-23T08:48:16;5.33;;;2.17;;
16510;SDS011;8368;48.772;8.754;2024-03-23T08:50:43;2.87;;;2.50;;
16510;SDS011;8368;48.772;8.754;2024-03-23T08:53:08;2.80;;;2.50;;
16510;SDS011;8368;48.772;8.754;2024-03-23T08:55:34;4.30;;;2.97;;
16510;SDS011;8368;48.772;8.754;2024-03-23T08:58:00;5.00;;;3.03;;
16510;SDS011;8368;48.772;8.754;2024-03-23T09:00:26;5.03;;;2.87;;
16510;SDS011;8368;48.772;8.754;2024-03-23T09:02:51;9.23;;;4.07;;
16510;SDS011;8368;48.772;8.754;2024-03-23T09:05:18;6.73;;;3.53;;
16510;SDS011;8368;48.772;8.754;2024-03-23T09:07:43;5.70;;;3.67;;
16510;SDS011;8368;48.772;8.754;2024-03-23T09:10:09;5.70;;;3.63;;
16510;SDS011;8368;48.772;8.754;2024-03-23T09:12:34;8.70;;;4.33;;
16510;SDS011;8368;48.772;8.754;2024-03-23T09:15:00;8.87;;;4.30;;
16510;SDS011;8368;48.772;8.754;2024-03-23T09:17:25;7.40;;;3.83;;
16510;SDS011;8368;48.772;8.754;2024-03-23T09:19:51;7.47;;;3.40;;
16510;SDS011;8368;48.772;8.754;2024-03-23T09:22:16;7.60;;;3.37;;
16510;SDS011;8368;48.772;8.754;2024-03-23T09:24:42;5.03;;;3.27;;
16510;SDS011;8368;48.772;8.754;2024-03-23T09:27:07;5.97;;;3.57;;
16510;SDS011;8368;48.772;8.754;2024-03-23T09:29:33;7.60;;;3.77;;
16510;SDS011;8368;48.772;8.754;2024-03-23T09:31:58;6.00;;;3.33;;
16510;SDS011;8368;48.772;8.754;2024-03-23T09:34:24;7.47;;;3.13;;
16510;SDS011;8368;48.772;8.754;2024-03-23T09:36:53;8.87;;;3.87;;
16510;SDS011;8368;48.772;8.754;2024-03-23T09:39:18;6.47;;;3.13;;
16510;SDS011;8368;48.772;8.754;2024-03-23T09:41:44;8.87;;;3.07;;
16510;SDS011;8368;48.772;8.754;2024-03-23T09:44:10;5.47;;;3.53;;
16510;SDS011;8368;48.772;8.754;2024-03-23T09:46:36;5.43;;;3.10;;
16510;SDS011;8368;48.772;8.754;2024-03-23T09:49:03;5.73;;;3.10;;
16510;SDS011;8368;48.772;8.754;2024-03-23T09:51:30;4.70;;;3.40;;
16510;SDS011;8368;48.772;8.754;2024-03-23T09:53:56;5.37;;;3.40;;
16510;SDS011;8368;48.772;8.754;2024-03-23T09:56:22;6.00;;;3.13;;
16510;SDS011;8368;48.772;8.754;2024-03-23T09:58:48;8.43;;;3.27;;
16510;SDS011;8368;48.772;8.754;2024-03-23T10:01:14;8.57;;;3.50;;
16510;SDS011;8368;48.772;8.754;2024-03-23T10:03:46;4.00;;;3.00;;
16510;SDS011;8368;48.772;8.754;2024-03-23T10:06:11;7.17;;;3.43;;
16510;SDS011;8368;48.772;8.754;2024-03-23T10:08:40;4.03;;;3.07;;
16510;SDS011;8368;48.772;8.754;2024-03-23T10:11:15;8.73;;;3.50;;
16510;SDS011;8368;48.772;8.754;2024-03-23T10:13:42;5.10;;;3.30;;
16510;SDS011;8368;48.772;8.754;2024-03-23T10:16:09;12.77;;;3.63;;
16510;SDS011;8368;48.772;8.754;2024-03-23T10:18:38;4.80;;;3.73;;
16510;SDS011;8368;48.772;8.754;2024-03-23T10:21:10;6.27;;;3.17;;
16510;SDS011;8368;48.772;8.754;2024-03-23T10:23:37;5.60;;;3.50;;
16510;SDS011;8368;48.772;8.754;2024-03-23T10:26:22;10.67;;;4.23;;
16510;SDS011;8368;48.772;8.754;2024-03-23T10:28:54;7.53;;;3.67;;
16510;SDS011;8368;48.772;8.754;2024-03-23T10:31:26;9.33;;;3.80;;
16510;SDS011;8368;48.772;8.754;2024-03-23T10:33:53;6.47;;;3.17;;
16510;SDS011;8368;48.772;8.754;2024-03-23T10:36:19;4.43;;;2.33;;
16510;SDS011;8368;48.772;8.754;2024-03-23T10:38:46;3.63;;;2.47;;
16510;SDS011;8368;48.772;8.754;2024-03-23T10:41:12;2.13;;;2.00;;
16510;SDS011;8368;48.772;8.754;2024-03-23T10:43:38;2.57;;;1.90;;
16510;SDS011;8368;48.772;8.754;2024-03-23T10:46:04;2.50;;;2.07;;
16510;SDS011;8368;48.772;8.754;2024-03-23T10:48:33;2.77;;;1.97;;
16510;SDS011;8368;48.772;8.754;2024-03-23T10:50:59;2.00;;;1.90;;
16510;SDS011;8368;48.772;8.754;2024-03-23T10:53:26;1.73;;;1.63;;
16510;SDS011;8368;48.772;8.754;2024-03-23T10:55:54;2.40;;;1.77;;
16510;SDS011;8368;48.772;8.754;2024-03-23T10:58:30;1.70;;;1.60;;
16510;SDS011;8368;48.772;8.754;2024-03-23T11:01:11;2.40;;;1.53;;
16510;SDS011;8368;48.772;8.754;2024-03-23T11:03:38;3.43;;;1.87;;
16510;SDS011;8368;48.772;8.754;2024-03-23T11:06:06;2.97;;;1.70;;
16510;SDS011;8368;48.772;8.754;2024-03-23T11:11:11;4.33;;;1.90;;
16510;SDS011;8368;48.772;8.754;2024-03-23T11:13:37;1.70;;;1.60;;
16510;SDS011;8368;48.772;8.754;2024-03-23T11:19:33;2.40;;;1.80;;
16510;SDS011;8368;48.772;8.754;2024-03-23T11:22:02;1.70;;;1.60;;
16510;SDS011;8368;48.772;8.754;2024-03-23T11:24:28;1.97;;;1.50;;
16510;SDS011;8368;48.772;8.754;2024-03-23T11:26:54;2.03;;;1.40;;
16510;SDS011;8368;48.772;8.754;2024-03-23T11:29:19;1.60;;;1.50;;
16510;SDS011;8368;48.772;8.754;2024-03-23T11:31:46;4.97;;;1.60;;
16510;SDS011;8368;48.772;8.754;2024-03-23T11:34:12;1.20;;;1.10;;
16510;SDS011;8368;48.772;8.754;2024-03-23T11:36:38;3.10;;;1.30;;
16510;SDS011;8368;48.772;8.754;2024-03-23T11:39:16;4.67;;;1.20;;
16510;SDS011;8368;48.772;8.754;2024-03-23T11:41:52;4.40;;;1.57;;
16510;SDS011;8368;48.772;8.754;2024-03-23T11:44:19;2.70;;;1.30;;
16510;SDS011;8368;48.772;8.754;2024-03-23T11:46:49;4.10;;;1.47;;
16510;SDS011;8368;48.772;8.754;2024-03-23T11:49:27;6.53;;;1.30;;
16510;SDS011;8368;48.772;8.754;2024-03-23T11:51:56;7.00;;;1.50;;
16510;SDS011;8368;48.772;8.754;2024-03-23T11:54:25;6.00;;;1.77;;
16510;SDS011;8368;48.772;8.754;2024-03-23T11:57:04;3.00;;;1.70;;
16510;SDS011;8368;48.772;8.754;2024-03-23T11:59:39;5.10;;;2.00;;
16510;SDS011;8368;48.772;8.754;2024-03-23T12:02:12;3.80;;;1.90;;
16510;SDS011;8368;48.772;8.754;2024-03-23T12:04:41;3.80;;;2.03;;
16510;SDS011;8368;48.772;8.754;2024-03-23T12:07:14;4.90;;;1.63;;
16510;SDS011;8368;48.772;8.754;2024-03-23T12:10:04;6.13;;;1.97;;
16510;SDS011;8368;48.772;8.754;2024-03-23T12:12:34;4.53;;;2.13;;
16510;SDS011;8368;48.772;8.754;2024-03-23T12:15:03;4.97;;;1.87;;
16510;SDS011;8368;48.772;8.754;2024-03-23T12:17:33;6.73;;;2.20;;
16510;SDS011;8368;48.772;8.754;2024-03-23T12:19:59;5.37;;;2.70;;
16510;SDS011;8368;48.772;8.754;2024-03-23T12:22:26;4.50;;;2.30;;
16510;SDS011;8368;48.772;8.754;2024-03-23T12:24:52;5.80;;;2.43;;
16510;SDS011;8368;48.772;8.754;2024-03-23T12:27:17;9.67;;;2.80;;
16510;SDS011;8368;48.772;8.754;2024-03-23T12:29:43;10.43;;;2.47;;
16510;SDS011;8368;48.772;8.754;2024-03-23T12:32:12;8.47;;;2.80;;
16510;SDS011;8368;48.772;8.754;2024-03-23T12:34:39;4.10;;;2.57;;
16510;SDS011;8368;48.772;8.754;2024-03-23T12:37:05;7.40;;;2.57;;
16510;SDS011;8368;48.772;8.754;2024-03-23T12:39:34;4.00;;;1.93;;
16510;SDS011;8368;48.772;8.754;2024-03-23T12:42:00;5.27;;;2.27;;
16510;SDS011;8368;48.772;8.754;2024-03-23T12:44:27;5.90;;;2.37;;
16510;SDS011;8368;48.772;8.754;2024-03-23T12:46:53;4.40;;;2.70;;
16510;SDS011;8368;48.772;8.754;2024-03-23T12:49:19;5.43;;;2.43;;
16510;SDS011;8368;48.772;8.754;2024-03-23T12:51:47;6.60;;;2.77;;
16510;SDS011;8368;48.772;8.754;2024-03-23T12:54:19;6.47;;;2.60;;
16510;SDS011;8368;48.772;8.754;2024-03-23T12:56:45;4.83;;;2.03;;
16510;SDS011;8368;48.772;8.754;2024-03-23T12:59:11;5.33;;;2.00;;
16510;SDS011;8368;48.772;8.754;2024-03-23T13:01:37;6.93;;;2.40;;
16510;SDS011;8368;48.772;8.754;2024-03-23T13:04:03;4.93;;;2.10;;
16510;SDS011;8368;48.772;8.754;2024-03-23T13:06:29;4.57;;;1.90;;
16510;SDS011;8368;48.772;8.754;2024-03-23T13:08:58;6.67;;;2.30;;
16510;SDS011;8368;48.772;8.754;2024-03-23T13:11:28;4.50;;;1.97;;
16510;SDS011;8368;48.772;8.754;2024-03-23T13:13:54;4.17;;;1.83;;
16510;SDS011;8368;48.772;8.754;2024-03-23T13:16:20;3.97;;;1.90;;
16510;SDS011;8368;48.772;8.754;2024-03-23T13:18:45;6.53;;;1.93;;
16510;SDS011;8368;48.772;8.754;2024-03-23T13:21:11;5.00;;;2.10;;
16510;SDS011;8368;48.772;8.754;2024-03-23T13:23:36;7.67;;;1.80;;
16510;SDS011;8368;48.772;8.754;2024-03-23T13:26:03;4.30;;;1.97;;
16510;SDS011;8368;48.772;8.754;2024-03-23T13:28:28;4.00;;;1.90;;
16510;SDS011;8368;48.772;8.754;2024-03-23T13:30:54;6.13;;;2.07;;
16510;SDS011;8368;48.772;8.754;2024-03-23T13:33:21;3.63;;;1.57;;
16510;SDS011;8368;48.772;8.754;2024-03-23T13:38:19;6.40;;;1.70;;
16510;SDS011;8368;48.772;8.754;2024-03-23T13:43:19;3.80;;;1.60;;
16510;SDS011;8368;48.772;8.754;2024-03-23T13:45:49;1.60;;;1.40;;
16510;SDS011;8368;48.772;8.754;2024-03-23T13:48:17;3.27;;;1.30;;
16510;SDS011;8368;48.772;8.754;2024-03-23T13:50:44;2.83;;;1.40;;
16510;SDS011;8368;48.772;8.754;2024-03-23T13:53:12;0.80;;;0.80;;
16510;SDS011;8368;48.772;8.754;2024-03-23T13:55:38;1.87;;;1.13;;
16510;SDS011;8368;48.772;8.754;2024-03-23T13:58:12;1.33;;;1.30;;
16510;SDS011;8368;48.772;8.754;2024-03-23T14:00:37;3.10;;;1.30;;
16510;SDS011;8368;48.772;8.754;2024-03-23T14:03:03;3.37;;;1.27;;
16510;SDS011;8368;48.772;8.754;2024-03-23T14:05:28;1.43;;;1.00;;
16510;SDS011;8368;48.772;8.754;2024-03-23T14:07:54;1.20;;;1.10;;
16510;SDS011;8368;48.772;8.754;2024-03-23T14:10:19;1.50;;;1.27;;
16510;SDS011;8368;48.772;8.754;2024-03-23T14:12:45;2.93;;;1.40;;
16510;SDS011;8368;48.772;8.754;2024-03-23T14:15:10;3.50;;;1.40;;
16510;SDS011;8368;48.772;8.754;2024-03-23T14:17:36;1.40;;;1.30;;
16510;SDS011;8368;48.772;8.754;2024-03-23T14:20:01;1.60;;;1.50;;
16510;SDS011;8368;48.772;8.754;2024-03-23T14:22:30;2.07;;;1.60;;
16510;SDS011;8368;48.772;8.754;2024-03-23T14:24:56;1.63;;;1.33;;
16510;SDS011;8368;48.772;8.754;2024-03-23T14:27:21;2.07;;;1.47;;
16510;SDS011;8368;48.772;8.754;2024-03-23T14:29:47;4.53;;;1.40;;
16510;SDS011;8368;48.772;8.754;2024-03-23T14:32:13;2.60;;;1.10;;
16510;SDS011;8368;48.772;8.754;2024-03-23T14:34:39;1.87;;;1.20;;
16510;SDS011;8368;48.772;8.754;2024-03-23T14:37:05;1.10;;;1.10;;
16510;SDS011;8368;48.772;8.754;2024-03-23T14:39:31;1.60;;;1.10;;
16510;SDS011;8368;48.772;8.754;2024-03-23T14:41:59;1.47;;;1.17;;
16510;SDS011;8368;48.772;8.754;2024-03-23T14:44:28;1.20;;;1.10;;
16510;SDS011;8368;48.772;8.754;2024-03-23T14:46:53;1.60;;;1.03;;
16510;SDS011;8368;48.772;8.754;2024-03-23T14:49:20;1.37;;;1.10;;
16510;SDS011;8368;48.772;8.754;2024-03-23T14:51:46;1.60;;;0.90;;
16510;SDS011;8368;48.772;8.754;2024-03-23T14:54:11;2.47;;;0.90;;
16510;SDS011;8368;48.772;8.754;2024-03-23T14:56:38;2.10;;;0.83;;
16510;SDS011;8368;48.772;8.754;2024-03-23T14:59:03;3.17;;;1.00;;
16510;SDS011;8368;48.772;8.754;2024-03-23T15:01:29;2.43;;;1.00;;
16510;SDS011;8368;48.772;8.754;2024-03-23T15:03:55;1.60;;;0.90;;
16510;SDS011;8368;48.772;8.754;2024-03-23T15:06:20;0.77;;;0.77;;
16510;SDS011;8368;48.772;8.754;2024-03-23T15:08:46;2.50;;;1.20;;
16510;SDS011;8368;48.772;8.754;2024-03-23T15:11:11;2.20;;;1.20;;
16510;SDS011;8368;48.772;8.754;2024-03-23T15:13:37;0.90;;;0.87;;
16510;SDS011;8368;48.772;8.754;2024-03-23T15:16:04;1.10;;;0.70;;
16510;SDS011;8368;48.772;8.754;2024-03-23T15:18:30;2.60;;;0.93;;
16510;SDS011;8368;48.772;8.754;2024-03-23T15:20:57;1.13;;;1.03;;
16510;SDS011;8368;48.772;8.754;2024-03-23T15:23:27;3.30;;;1.10;;
16510;SDS011;8368;48.772;8.754;2024-03-23T15:25:55;1.27;;;1.00;;
16510;SDS011;8368;48.772;8.754;2024-03-23T15:28:24;0.80;;;0.80;;
16510;SDS011;8368;48.772;8.754;2024-03-23T15:31:06;1.20;;;1.03;;
16510;SDS011;8368;48.772;8.754;2024-03-23T15:33:35;3.30;;;0.90;;
16510;SDS011;8368;48.772;8.754;2024-03-23T15:36:04;3.30;;;1.00;;
16510;SDS011;8368;48.772;8.754;2024-03-23T15:38:33;2.10;;;1.23;;
16510;SDS011;8368;48.772;8.754;2024-03-23T15:40:59;1.00;;;1.00;;
16510;SDS011;8368;48.772;8.754;2024-03-23T15:43:25;1.63;;;0.77;;
16510;SDS011;8368;48.772;8.754;2024-03-23T15:46:02;2.67;;;1.20;;
16510;SDS011;8368;48.772;8.754;2024-03-23T15:48:29;2.77;;;0.80;;
16510;SDS011;8368;48.772;8.754;2024-03-23T15:50:59;3.30;;;0.93;;
16510;SDS011;8368;48.772;8.754;2024-03-23T15:53:26;0.60;;;0.60;;
16510;SDS011;8368;48.772;8.754;2024-03-23T15:55:55;2.30;;;0.80;;
16510;SDS011;8368;48.772;8.754;2024-03-23T15:58:24;1.90;;;0.80;;
16510;SDS011;8368;48.772;8.754;2024-03-23T16:00:56;1.57;;;0.80;;
16510;SDS011;8368;48.772;8.754;2024-03-23T16:03:28;1.40;;;1.30;;
16510;SDS011;8368;48.772;8.754;2024-03-23T16:05:55;1.33;;;0.87;;
16510;SDS011;8368;48.772;8.754;2024-03-23T16:08:22;1.23;;;0.60;;
16510;SDS011;8368;48.772;8.754;2024-03-23T16:10:48;1.20;;;1.10;;